Time;durP1;ratioP1;P1;durP2;ratioP2;P2;SDS_P1;SDS_P2;PMS_P1;PMS_P2;Temp;Humidity;BMP_temperature;BMP_pressure;BME280_temperature;BME280_humidity;BME280_pressure;Samples;Min_cycle;Max_cycle;Signal;HPM_P1;HPM_P2
2021/09/29 00:01:56;;;;;;;12.63;7.97;;;;;;;14.10;100.00;95480.69;5081321;28;20051;-70
2021/09/29 00:04:23;;;;;;;12.95;8.23;;;;;;;14.10;100.00;95491.16;5076212;28;20051;-70
2021/09/29 00:06:50;;;;;;;12.85;7.57;;;;;;;14.12;100.00;95504.81;5071530;28;20049;-70
2021/09/29 00:09:17;;;;;;;11.95;8.02;;;;;;;14.10;100.00;95488.53;5067736;28;20410;-70
2021/09/29 00:11:44;;;;;;;13.23;8.25;;;;;;;14.18;100.00;95503.84;5067788;28;20043;-70
2021/09/29 00:14:11;;;;;;;12.63;7.97;;;;;;;14.05;100.00;95498.94;5067809;28;20048;-70
2021/09/29 00:16:38;;;;;;;12.90;7.80;;;;;;;14.11;100.00;95505.84;5079220;28;20389;-70
2021/09/29 00:19:05;;;;;;;13.15;8.32;;;;;;;14.08;100.00;95493.19;5084069;28;20040;-70
2021/09/29 00:21:31;;;;;;;13.23;8.52;;;;;;;14.10;100.00;95501.63;5067507;28;20052;-70
2021/09/29 00:23:58;;;;;;;12.43;7.65;;;;;;;14.03;100.00;95512.25;5068586;28;20101;-70
2021/09/29 00:26:25;;;;;;;13.38;8.20;;;;;;;14.04;100.00;95513.81;5086266;28;20048;-70
2021/09/29 00:28:52;;;;;;;16.73;8.45;;;;;;;14.06;100.00;95508.38;5067877;28;20514;-70
2021/09/29 00:34:00;;;;;;;14.98;9.13;;;;;;;13.98;100.00;95514.00;5084404;28;20036;-70
2021/09/29 00:36:27;;;;;;;13.77;8.70;;;;;;;13.92;100.00;95511.28;5077941;28;20046;-70
2021/09/29 00:38:54;;;;;;;11.55;7.60;;;;;;;13.92;100.00;95516.53;5067307;28;20045;-70
2021/09/29 00:41:21;;;;;;;13.00;8.13;;;;;;;13.88;100.00;95507.56;5086700;28;20062;-70
2021/09/29 00:43:48;;;;;;;10.38;6.97;;;;;;;13.69;100.00;95495.69;5077779;28;20032;-70
2021/09/29 00:46:14;;;;;;;11.50;7.40;;;;;;;13.62;100.00;95500.25;5083529;28;20048;-70
2021/09/29 00:48:41;;;;;;;9.20;6.28;;;;;;;13.74;100.00;95503.63;5081806;28;20051;-70
2021/09/29 00:51:09;;;;;;;12.07;7.20;;;;;;;13.83;100.00;95512.69;5074854;28;20040;-71
2021/09/29 00:53:37;;;;;;;11.23;6.53;;;;;;;13.77;100.00;95508.38;5075113;28;20090;-71
2021/09/29 00:56:05;;;;;;;8.77;5.85;;;;;;;13.60;100.00;95518.03;5066560;28;20720;-70
2021/09/29 00:58:32;;;;;;;10.70;6.22;;;;;;;13.56;100.00;95513.25;5068434;28;20051;-71
2021/09/29 01:00:59;;;;;;;9.30;5.35;;;;;;;13.52;100.00;95517.34;5066833;28;20093;-71
2021/09/29 01:03:27;;;;;;;7.45;4.72;;;;;;;13.38;100.00;95510.78;5066721;28;20044;-71
2021/09/29 01:06:00;;;;;;;5.63;3.67;;;;;;;13.43;100.00;95523.97;5066524;28;20044;-71
2021/09/29 01:08:38;;;;;;;6.85;4.30;;;;;;;13.33;100.00;95521.16;5066539;28;20044;-71
2021/09/29 01:11:30;;;;;;;9.10;3.97;;;;;;;13.31;100.00;95515.38;5065245;28;20102;-71
2021/09/29 01:14:09;;;;;;;7.35;4.50;;;;;;;13.28;100.00;95510.56;5066529;28;20041;-71
2021/09/29 01:16:38;;;;;;;6.53;3.58;;;;;;;13.23;100.00;95513.84;5065384;28;20052;-71
2021/09/29 01:19:19;;;;;;;7.80;4.90;;;;;;;13.29;100.00;95518.19;5084692;28;20036;-71
2021/09/29 01:21:50;;;;;;;7.63;5.20;;;;;;;13.17;100.00;95499.88;5085950;28;20048;-71
2021/09/29 01:24:35;;;;;;;5.70;4.25;;;;;;;13.34;100.00;95515.69;5086162;28;20641;-71
2021/09/29 01:27:02;;;;;;;;;;;;;;;13.30;100.00;95508.50;5068576;28;20040;-71
2021/09/29 01:29:29;;;;;;;8.38;4.80;;;;;;;13.11;100.00;95495.56;5065843;28;19920;-71
2021/09/29 01:31:57;;;;;;;8.48;5.20;;;;;;;13.18;100.00;95517.16;5066130;28;20052;-71
2021/09/29 01:34:23;;;;;;;5.72;4.60;;;;;;;13.14;100.00;95513.44;5070649;28;20055;-71
2021/09/29 01:36:51;;;;;;;6.03;4.13;;;;;;;13.11;100.00;95510.47;5077235;28;20036;-71
2021/09/29 01:39:24;;;;;;;8.05;4.63;;;;;;;13.01;100.00;95500.59;5083214;28;20050;-71
2021/09/29 01:41:52;;;;;;;8.57;4.65;;;;;;;13.11;100.00;95516.50;5086000;28;20048;-71
2021/09/29 01:44:18;;;;;;;8.43;4.93;;;;;;;13.06;100.00;95534.69;5077973;28;20375;-71
2021/09/29 01:46:45;;;;;;;7.00;3.70;;;;;;;13.06;100.00;95534.69;5065808;28;20055;-71
2021/09/29 01:49:30;;;;;;;7.47;4.45;;;;;;;13.00;100.00;95525.16;5078604;28;20055;-71
2021/09/29 01:51:58;;;;;;;7.53;5.72;;;;;;;13.01;100.00;95532.75;5064900;28;20052;-71
2021/09/29 01:54:28;;;;;;;6.28;4.07;;;;;;;13.02;100.00;95536.19;5065335;28;20102;-71
2021/09/29 01:56:55;;;;;;;6.85;4.50;;;;;;;12.99;100.00;95539.25;5071947;28;20114;-71
2021/09/29 01:59:25;;;;;;;6.15;4.90;;;;;;;12.99;100.00;95540.03;5085255;28;20501;-71
2021/09/29 02:01:53;;;;;;;7.85;4.82;;;;;;;12.98;100.00;95527.19;5085634;28;20078;-71
2021/09/29 02:04:20;;;;;;;9.02;5.13;;;;;;;13.07;100.00;95531.06;5085822;28;20115;-71
2021/09/29 02:06:55;;;;;;;9.57;5.75;;;;;;;13.12;100.00;95533.75;5075018;28;20549;-71
2021/09/29 02:09:25;;;;;;;8.18;4.93;;;;;;;13.07;100.00;95536.28;5065591;28;20040;-71
2021/09/29 02:11:54;;;;;;;8.30;5.05;;;;;;;12.93;100.00;95519.25;5068569;28;20044;-71
2021/09/29 02:14:23;;;;;;;6.53;4.38;;;;;;;12.96;100.00;95534.47;5085769;28;20764;-71
2021/09/29 02:16:53;;;;;;;5.30;3.60;;;;;;;12.87;100.00;95535.84;5064545;28;20121;-71
2021/09/29 02:19:21;;;;;;;4.95;3.15;;;;;;;12.82;100.00;95524.25;5065458;28;20048;-71
2021/09/29 02:21:48;;;;;;;5.15;3.97;;;;;;;12.87;100.00;95535.84;5078813;28;20437;-71
2021/09/29 02:24:15;;;;;;;5.18;3.22;;;;;;;12.80;100.00;95534.13;5079043;28;20521;-71
2021/09/29 02:26:43;;;;;;;5.07;3.70;;;;;;;12.77;100.00;95541.63;5065822;28;20052;-71
2021/09/29 02:29:11;;;;;;;4.75;3.38;;;;;;;12.76;100.00;95538.22;5074935;28;20044;-71
2021/09/29 02:31:38;;;;;;;5.72;3.42;;;;;;;12.77;100.00;95539.81;5069689;28;20726;-71
2021/09/29 02:34:05;;;;;;;4.88;3.00;;;;;;;12.60;100.00;95525.81;5064254;28;20496;-71
2021/09/29 02:36:32;;;;;;;4.68;3.40;;;;;;;12.57;100.00;95527.06;5070676;28;20045;-70
2021/09/29 02:38:59;;;;;;;5.07;3.42;;;;;;;12.69;100.00;95544.56;5065078;28;20059;-70
2021/09/29 02:41:27;;;;;;;5.20;3.63;;;;;;;12.65;100.00;95544.22;5078531;28;20040;-70
2021/09/29 02:43:53;;;;;;;5.10;3.83;;;;;;;12.54;100.00;95531.97;5084754;28;20032;-70
2021/09/29 02:46:20;;;;;;;3.50;2.78;;;;;;;12.53;100.00;95554.69;5085065;28;20501;-70
2021/09/29 02:48:47;;;;;;;5.50;3.70;;;;;;;12.49;100.00;95550.13;5084825;28;20036;-70
2021/09/29 02:51:14;;;;;;;6.05;3.92;;;;;;;12.50;100.00;95556.94;5084552;28;20066;-70
2021/09/29 02:53:41;;;;;;;7.22;4.20;;;;;;;12.37;100.00;95537.84;5071839;28;20405;-70
2021/09/29 02:56:08;;;;;;;4.97;3.58;;;;;;;12.41;100.00;95544.19;5064677;28;20040;-70
2021/09/29 02:58:34;;;;;;;5.45;3.50;;;;;;;12.39;100.00;95530.56;5064446;28;20055;-71
2021/09/29 03:01:02;;;;;;;6.35;4.53;;;;;;;12.44;100.00;95548.16;5064470;28;20040;-71
2021/09/29 03:03:29;;;;;;;7.20;4.80;;;;;;;12.39;100.00;95550.69;5064980;28;20043;-70
2021/09/29 03:05:56;;;;;;;5.57;4.10;;;;;;;12.36;100.00;95551.91;5080202;28;20039;-71
2021/09/29 03:08:23;;;;;;;8.95;4.47;;;;;;;12.34;100.00;95551.34;5084730;28;20039;-70
2021/09/29 03:10:49;;;;;;;6.18;4.40;;;;;;;12.35;100.00;95552.94;5065049;28;20048;-70
2021/09/29 03:13:16;;;;;;;6.47;4.68;;;;;;;12.34;100.00;95543.50;5063458;28;20071;-71
2021/09/29 03:15:43;;;;;;;5.65;4.15;;;;;;;12.39;100.00;95546.25;5069172;28;20063;-70
2021/09/29 03:18:10;;;;;;;5.95;4.07;;;;;;;12.35;100.00;95542.50;5080987;28;20051;-71
2021/09/29 03:20:37;;;;;;;5.93;4.47;;;;;;;12.33;100.00;95539.28;5073308;28;20075;-71
2021/09/29 03:23:04;;;;;;;6.57;4.30;;;;;;;12.30;100.00;95547.59;5076272;28;20036;-71
2021/09/29 03:25:30;;;;;;;7.57;4.78;;;;;;;12.29;100.00;95535.53;5084666;28;20044;-70
2021/09/29 03:27:57;;;;;;;6.70;4.45;;;;;;;12.38;100.00;95544.66;5084341;28;20036;-70
2021/09/29 03:30:24;;;;;;;11.38;5.15;;;;;;;12.17;100.00;95519.03;5062924;28;20379;-70
2021/09/29 03:32:51;;;;;;;8.95;5.43;;;;;;;12.32;100.00;95545.56;5072095;28;20516;-70
2021/09/29 03:35:18;;;;;;;8.30;5.50;;;;;;;12.28;100.00;95533.97;5078485;28;20070;-70
2021/09/29 03:37:45;;;;;;;7.07;4.47;;;;;;;12.24;100.00;95527.56;5063107;28;20520;-70
2021/09/29 03:40:14;;;;;;;9.45;4.95;;;;;;;12.26;100.00;95525.53;5068469;28;20565;-70
2021/09/29 03:42:41;;;;;;;7.40;4.70;;;;;;;12.31;100.00;95538.72;5068928;28;20043;-70
2021/09/29 03:45:10;;;;;;;8.05;5.65;;;;;;;12.28;100.00;95523.53;5068080;28;20532;-70
2021/09/29 03:47:38;;;;;;;10.23;5.15;;;;;;;12.37;100.00;95534.41;5068420;28;20092;-70
2021/09/29 03:50:05;;;;;;;5.50;4.00;;;;;;;12.47;100.00;95531.25;5068107;28;20040;-71
2021/09/29 03:52:32;;;;;;;6.65;4.65;;;;;;;12.42;100.00;95519.69;5067521;28;20056;-70
2021/09/29 03:54:59;;;;;;;7.00;4.63;;;;;;;12.50;100.00;95520.38;5066982;28;20051;-71
2021/09/29 03:57:25;;;;;;;5.50;4.07;;;;;;;12.48;100.00;95522.38;5081369;28;20093;-71
2021/09/29 03:59:52;;;;;;;6.20;4.50;;;;;;;12.50;100.00;95520.38;5087434;28;20055;-71
2021/09/29 04:02:19;;;;;;;6.18;4.60;;;;;;;12.56;100.00;95519.47;5087805;28;20040;-71
2021/09/29 04:04:46;;;;;;;7.03;5.05;;;;;;;12.68;100.00;95530.72;5069784;28;20045;-71
2021/09/29 04:07:13;;;;;;;8.27;5.35;;;;;;;12.62;100.00;95534.22;5067980;28;20498;-71
2021/09/29 04:09:39;;;;;;;8.75;5.00;;;;;;;12.61;100.00;95532.66;5067754;28;20464;-71
2021/09/29 04:12:06;;;;;;;9.90;5.43;;;;;;;12.56;100.00;95535.13;5069555;28;20067;-70
2021/09/29 04:14:33;;;;;;;6.38;4.88;;;;;;;12.54;100.00;95534.56;5087433;28;20505;-70
2021/09/29 04:17:00;;;;;;;7.93;5.40;;;;;;;12.47;100.00;95533.88;5075018;28;20041;-70
2021/09/29 04:19:27;;;;;;;8.27;5.05;;;;;;;12.48;100.00;95532.84;5081061;28;20054;-69
2021/09/29 04:21:53;;;;;;;10.45;6.00;;;;;;;12.48;100.00;95527.63;5087034;28;20040;-69
2021/09/29 04:24:20;;;;;;;11.38;6.68;;;;;;;12.38;100.00;95528.19;5087447;28;20040;-70
2021/09/29 04:26:49;;;;;;;8.73;6.00;;;;;;;12.43;100.00;95536.94;5081922;28;20040;-70
2021/09/29 04:29:16;;;;;;;7.60;5.53;;;;;;;12.43;100.00;95536.94;5071271;28;20048;-70
2021/09/29 04:31:43;;;;;;;8.45;5.32;;;;;;;12.47;100.00;95539.09;5079179;28;20051;-71
2021/09/29 04:34:10;;;;;;;9.32;5.63;;;;;;;12.46;100.00;95550.56;5072734;28;20041;-70
2021/09/29 04:36:37;;;;;;;9.07;5.63;;;;;;;12.41;100.00;95544.19;5084278;28;20105;-71
2021/09/29 04:39:04;;;;;;;9.80;6.25;;;;;;;12.43;100.00;95539.53;5078404;28;20047;-71
2021/09/29 04:41:31;;;;;;;9.45;5.45;;;;;;;12.59;100.00;95558.22;5066881;28;20125;-71
2021/09/29 04:43:57;;;;;;;12.57;6.00;;;;;;;12.56;100.00;95545.59;5070468;28;20040;-71
2021/09/29 04:46:25;;;;;;;10.52;5.80;;;;;;;12.47;100.00;95546.94;5072610;28;20037;-70
2021/09/29 04:48:51;;;;;;;7.32;4.90;;;;;;;12.59;100.00;95560.81;5066058;28;20047;-69
2021/09/29 04:51:18;;;;;;;6.97;4.38;;;;;;;12.42;100.00;95545.81;5066117;28;20399;-69
2021/09/29 04:53:45;;;;;;;7.35;4.53;;;;;;;12.51;100.00;95561.13;5072249;28;20036;-69
2021/09/29 04:56:12;;;;;;;6.82;4.68;;;;;;;12.51;100.00;95558.53;5065984;28;20045;-69
2021/09/29 04:58:39;;;;;;;7.07;4.93;;;;;;;12.49;100.00;95557.97;5065832;28;20509;-69
2021/09/29 05:01:05;;;;;;;6.88;4.10;;;;;;;12.41;100.00;95557.25;5079150;28;20051;-69
2021/09/29 05:03:33;;;;;;;8.18;4.47;;;;;;;12.45;100.00;95554.22;5080558;28;20038;-70
2021/09/29 05:06:00;;;;;;;8.00;4.68;;;;;;;12.42;100.00;95556.25;5064810;28;20036;-70
2021/09/29 05:08:29;;;;;;;6.28;4.40;;;;;;;12.37;100.00;95545.69;5077502;28;20036;-70
2021/09/29 05:11:04;;;;;;;8.52;4.68;;;;;;;12.50;100.00;95556.94;5072266;28;20047;-70
2021/09/29 05:13:32;;;;;;;;;;;;;;;12.51;100.00;95558.53;5078685;28;20035;-70
2021/09/29 05:16:00;;;;;;;5.75;3.40;;;;;;;12.37;100.00;95540.44;5084726;28;20393;-70
2021/09/29 05:18:27;;;;;;;5.25;3.85;;;;;;;12.45;100.00;95560.22;5085344;28;20555;-70
2021/09/29 05:20:54;;;;;;;6.05;3.67;;;;;;;12.48;100.00;95564.19;5068891;28;20052;-70
2021/09/29 05:23:21;;;;;;;7.97;4.45;;;;;;;12.48;100.00;95566.81;5085083;28;20047;-70
2021/09/29 05:25:48;;;;;;;6.15;3.85;;;;;;;12.54;100.00;95573.75;5071320;28;20743;-70
2021/09/29 05:28:23;;;;;;;6.40;4.38;;;;;;;12.58;100.00;95582.75;5086309;28;20117;-70
2021/09/29 05:30:49;;;;;;;6.35;4.03;;;;;;;12.46;100.00;95555.78;5080122;28;20513;-70
2021/09/29 05:33:17;;;;;;;4.90;3.70;;;;;;;12.56;100.00;95571.72;5064477;28;20040;-69
2021/09/29 05:35:43;;;;;;;5.75;3.72;;;;;;;12.47;100.00;95562.63;5065703;28;20056;-70
2021/09/29 05:48:21;;;;;;;6.30;4.07;;;;;;;12.48;100.00;95585.91;5131489;27;20135;-70
2021/09/29 05:50:48;;;;;;;8.13;4.95;;;;;;;12.48;100.00;95579.88;5142516;27;20107;-70
2021/09/29 05:53:15;;;;;;;7.90;3.80;;;;;;;12.52;100.00;95581.03;5142569;27;20107;-70
2021/09/29 05:55:42;;;;;;;5.47;3.88;;;;;;;12.61;100.00;95595.38;5143822;27;20035;-70
2021/09/29 05:58:09;;;;;;;7.28;4.03;;;;;;;12.67;100.00;95604.91;5107691;27;20100;-69
2021/09/29 06:00:36;;;;;;;6.35;4.07;;;;;;;12.71;100.00;95607.88;5143576;27;20100;-70
2021/09/29 06:03:03;;;;;;;6.72;3.78;;;;;;;12.39;100.00;95567.16;5143066;27;20031;-70
2021/09/29 06:05:29;;;;;;;7.60;4.55;;;;;;;12.65;100.00;95601.72;5143069;27;20046;-70
2021/09/29 06:07:56;;;;;;;6.28;4.00;;;;;;;12.77;100.00;95605.16;5124854;27;20043;-70
2021/09/29 06:10:23;;;;;;;6.40;4.15;;;;;;;12.69;100.00;95604.69;5143638;27;20035;-69
2021/09/29 06:12:50;;;;;;;8.52;4.65;;;;;;;12.83;100.00;95606.06;5142522;27;20046;-69
2021/09/29 06:15:24;;;;;;;7.53;4.72;;;;;;;12.69;100.00;95592.41;5142596;27;20042;-69
2021/09/29 06:17:56;;;;;;;6.93;3.85;;;;;;;12.87;100.00;95619.50;5142395;27;20061;-69
2021/09/29 06:20:23;;;;;;;6.93;3.72;;;;;;;12.91;100.00;95620.63;5142553;27;20030;-69
2021/09/29 06:22:50;;;;;;;6.07;3.67;;;;;;;12.96;100.00;95618.13;5141632;27;20416;-70
2021/09/29 06:25:17;;;;;;;6.07;4.03;;;;;;;12.79;100.00;95595.28;5140997;27;20043;-70
2021/09/29 06:27:44;;;;;;;5.78;3.25;;;;;;;12.82;100.00;95628.81;5143316;27;20063;-70
2021/09/29 06:30:11;;;;;;;6.25;4.25;;;;;;;12.79;100.00;95618.00;5121774;27;20042;-70
2021/09/29 06:32:38;;;;;;;5.10;3.75;;;;;;;12.88;100.00;95626.31;5142187;27;20035;-70
2021/09/29 06:35:07;;;;;;;7.45;5.13;;;;;;;12.82;100.00;95618.34;5142701;27;20447;-70
2021/09/29 06:37:39;;;;;;;8.20;5.03;;;;;;;12.91;100.00;95625.84;5130255;27;20053;-69
2021/09/29 06:40:07;;;;;;;7.20;4.90;;;;;;;12.87;100.00;95620.28;5137800;27;20122;-70
2021/09/29 06:42:34;;;;;;;6.85;4.38;;;;;;;12.86;100.00;95628.38;5135684;27;20055;-70
2021/09/29 06:45:01;;;;;;;6.75;4.25;;;;;;;12.86;100.00;95628.38;5138217;27;20039;-69
2021/09/29 06:47:28;;;;;;;6.60;3.92;;;;;;;12.71;100.00;95611.31;5127708;27;20047;-70
2021/09/29 06:49:55;;;;;;;6.25;3.97;;;;;;;12.85;100.00;95632.00;5136657;27;20043;-70
2021/09/29 06:52:22;;;;;;;6.53;4.03;;;;;;;12.85;100.00;95634.59;5138891;27;20043;-70
2021/09/29 06:54:48;;;;;;;5.30;3.35;;;;;;;12.87;100.00;95635.19;5141238;27;20096;-70
2021/09/29 06:57:15;;;;;;;8.32;6.13;;;;;;;12.90;100.00;95639.97;5136989;27;20054;-70
2021/09/29 06:59:43;;;;;;;6.78;4.75;;;;;;;12.95;100.00;95637.47;5108544;27;20043;-70
2021/09/29 07:02:11;;;;;;;6.65;3.75;;;;;;;12.96;100.00;95645.09;5120489;27;20089;-70
2021/09/29 07:04:38;;;;;;;6.30;4.40;;;;;;;13.03;100.00;95644.97;5103751;27;20104;-70
2021/09/29 07:07:05;;;;;;;6.05;3.58;;;;;;;12.96;100.00;95628.59;5120141;27;20059;-70
2021/09/29 07:09:31;;;;;;;5.28;3.90;;;;;;;13.00;100.00;95630.53;5118200;27;20051;-70
2021/09/29 07:11:58;;;;;;;6.10;3.95;;;;;;;13.08;100.00;95633.84;5124824;27;20054;-69
2021/09/29 07:14:28;;;;;;;6.95;4.65;;;;;;;13.07;100.00;95643.50;5126279;27;20047;-70
2021/09/29 07:16:55;;;;;;;5.70;3.78;;;;;;;13.17;100.00;95645.56;5108559;27;20794;-70
2021/09/29 07:19:22;;;;;;;6.20;4.13;;;;;;;13.22;100.00;95643.06;5126549;27;20531;-70
2021/09/29 07:21:49;;;;;;;6.03;4.15;;;;;;;13.34;100.00;95643.06;5124505;27;20051;-70
2021/09/29 07:24:16;;;;;;;7.05;5.30;;;;;;;13.37;100.00;95650.47;5127097;27;20049;-70
2021/09/29 07:26:43;;;;;;;8.52;4.57;;;;;;;13.31;100.00;95643.56;5124679;27;20051;-69
2021/09/29 07:29:10;;;;;;;6.68;5.10;;;;;;;13.35;100.00;95649.91;5125988;27;20047;-68
2021/09/29 07:31:38;;;;;;;5.57;4.15;;;;;;;13.46;100.00;95654.34;5124060;27;20078;-68
2021/09/29 07:34:07;;;;;;;6.85;4.22;;;;;;;13.60;100.00;95654.13;5123735;27;20416;-68
2021/09/29 07:36:35;;;;;;;7.78;3.42;;;;;;;13.57;100.00;95661.38;5121020;27;20055;-68
2021/09/29 07:39:02;;;;;;;7.55;3.60;;;;;;;13.49;100.00;95656.50;5125631;27;20043;-68
2021/09/29 07:41:29;;;;;;;6.68;4.03;;;;;;;13.42;100.00;95649.81;5124844;27;20054;-67
2021/09/29 07:43:56;;;;;;;6.70;4.50;;;;;;;13.46;100.00;95659.56;5126003;27;20039;-68
2021/09/29 07:46:23;;;;;;;8.35;4.63;;;;;;;13.39;100.00;95648.44;5124421;27;20051;-69
2021/09/29 07:48:50;;;;;;;6.78;4.22;;;;;;;13.57;100.00;95669.22;5119424;27;20482;-68
2021/09/29 07:51:17;;;;;;;6.03;3.53;;;;;;;13.72;100.00;95673.19;5121261;27;20059;-68
2021/09/29 07:53:44;;;;;;;6.75;3.97;;;;;;;13.76;100.00;95669.91;5126040;27;20500;-69
2021/09/29 07:56:11;;;;;;;5.85;3.72;;;;;;;13.87;100.00;95670.91;5125463;27;20114;-68
2021/09/29 07:58:38;;;;;;;6.75;4.00;;;;;;;13.70;100.00;95655.13;5125902;27;20050;-70
2021/09/29 08:01:05;;;;;;;7.53;4.20;;;;;;;13.80;100.00;95662.38;5125854;27;20039;-68
2021/09/29 08:03:32;;;;;;;7.57;4.60;;;;;;;13.81;100.00;95661.38;5117014;27;20040;-66
2021/09/29 08:06:02;;;;;;;6.32;4.03;;;;;;;13.89;100.00;95668.06;5118945;27;20039;-69
2021/09/29 08:08:30;;;;;;;8.15;4.97;;;;;;;13.96;100.00;95659.06;5119644;27;20579;-68
2021/09/29 08:10:57;;;;;;;7.90;4.70;;;;;;;14.01;100.00;95662.78;5120919;27;20051;-68
2021/09/29 08:13:23;;;;;;;10.88;5.20;;;;;;;14.12;100.00;95677.69;5118227;27;20059;-70
2021/09/29 08:15:50;;;;;;;8.35;5.25;;;;;;;14.21;98.85;95671.06;5121246;27;20051;-69
2021/09/29 08:18:18;;;;;;;6.47;4.00;;;;;;;14.33;98.36;95671.81;5125237;27;20070;-69
2021/09/29 08:20:45;;;;;;;8.77;5.80;;;;;;;14.31;98.83;95671.25;5123979;27;20071;-69
2021/09/29 08:23:23;;;;;;;7.00;4.53;;;;;;;14.42;97.89;95677.50;5105989;27;20065;-69
2021/09/29 08:28:49;;;;;;;16.70;7.72;;;;;;;14.43;97.41;95675.66;5089211;27;20062;-69
2021/09/29 08:39:14;;;;;;;7.47;4.80;;;;;;;14.83;95.56;95659.06;5118422;27;20055;-69
2021/09/29 08:44:52;;;;;;;7.18;4.78;;;;;;;15.18;93.58;95673.78;5121246;27;20504;-69
2021/09/29 09:16:40;;;;;;;6.28;4.25;;;;;;;15.34;91.62;95678.25;5122944;27;20035;-69
2021/09/29 09:19:09;;;;;;;7.07;4.78;;;;;;;15.29;89.94;95678.19;5124931;27;20819;-68
2021/09/29 09:21:59;;;;;;;10.52;6.13;;;;;;;15.23;90.78;95681.75;5124324;27;20495;-69
2021/09/29 09:24:29;;;;;;;6.35;4.05;;;;;;;15.44;91.30;95686.25;5121880;27;20055;-70
2021/09/29 09:26:57;;;;;;;7.47;4.63;;;;;;;15.47;91.12;95677.91;5121512;27;20043;-69
2021/09/29 09:29:23;;;;;;;7.18;4.10;;;;;;;15.48;89.61;95684.78;5124008;27;20055;-69
2021/09/29 09:31:50;;;;;;;6.93;4.03;;;;;;;15.32;90.61;95685.56;5124226;27;20091;-69
2021/09/29 09:34:17;;;;;;;5.32;3.72;;;;;;;15.20;89.11;95687.50;5121675;27;20055;-69
2021/09/29 09:36:48;;;;;;;6.72;4.43;;;;;;;15.27;90.65;95693.38;5124674;27;20035;-69
2021/09/29 09:39:20;;;;;;;6.95;3.47;;;;;;;15.32;90.20;95690.81;5124543;27;20081;-69
2021/09/29 09:41:54;;;;;;;5.45;4.22;;;;;;;15.29;89.15;95686.06;5124967;27;20058;-69
2021/09/29 09:44:22;;;;;;;7.22;5.45;;;;;;;15.30;89.87;95687.63;5123666;27;20062;-69
2021/09/29 09:47:12;;;;;;;7.90;5.15;;;;;;;15.37;91.05;95685.63;5119162;28;20047;-69
2021/09/29 09:49:58;;;;;;;4.97;3.05;;;;;;;15.36;89.88;95681.44;5115838;27;20108;-69
2021/09/29 09:52:32;;;;;;;8.02;4.40;;;;;;;15.51;89.31;95693.19;5123674;28;20047;-69
2021/09/29 09:55:11;;;;;;;4.63;3.08;;;;;;;15.45;87.91;95701.00;5123740;27;20051;-69
2021/09/29 09:57:39;;;;;;;4.30;2.90;;;;;;;15.41;90.01;95678.88;5120083;28;20050;-69
2021/09/29 10:00:10;;;;;;;3.95;3.25;;;;;;;15.52;90.53;95692.97;5121457;27;20055;-69
2021/09/29 10:02:40;;;;;;;4.82;3.50;;;;;;;15.51;89.92;95703.69;5116106;28;20492;-69
2021/09/29 10:05:11;;;;;;;4.43;3.22;;;;;;;15.52;88.70;95700.84;5118882;27;20104;-68
2021/09/29 10:07:42;;;;;;;5.90;4.00;;;;;;;15.66;89.06;95699.47;5113624;28;20043;-70
2021/09/29 10:24:10;;;;;;;6.65;3.42;;;;;;;15.23;92.71;95689.63;5100074;28;20040;-70
2021/09/29 10:26:24;;;;;;;7.03;3.63;;;;;;;15.25;91.06;95695.41;5095501;28;20062;-70
2021/09/29 10:29:06;;;;;;;5.35;3.88;;;;;;;15.32;90.43;95701.31;5103935;28;20040;-70
2021/09/29 10:34:22;;;;;;;5.82;3.72;;;;;;;15.37;91.05;95705.84;5110638;28;20397;-70
2021/09/29 11:28:33;;;;;;;8.35;4.75;;;;;;;15.27;91.26;95682.88;5076044;28;20071;-69
2021/09/29 11:31:10;;;;;;;8.63;4.47;;;;;;;15.20;91.39;95682.25;5072832;28;20135;-69
2021/09/29 11:36:30;;;;;;;9.07;6.13;;;;;;;15.13;93.28;95676.34;5077531;28;20057;-69
2021/09/29 12:08:59;;;;;;;5.55;3.72;;;;;;;15.65;91.38;95663.72;5086669;28;20063;-69
2021/09/29 12:11:31;;;;;;;8.35;5.20;;;;;;;15.60;90.10;95666.28;5087420;28;20048;-69
2021/09/29 12:14:03;;;;;;;6.72;4.38;;;;;;;15.59;88.58;95663.88;5086253;28;20505;-69
2021/09/29 12:16:33;;;;;;;6.82;4.22;;;;;;;15.47;90.31;95664.78;5087488;28;20048;-69
2021/09/29 12:19:04;;;;;;;6.40;4.32;;;;;;;15.55;90.90;95673.28;5086708;28;20043;-70
2021/09/29 12:21:34;;;;;;;7.88;4.57;;;;;;;15.35;89.18;95669.34;5086579;28;20048;-70
2021/09/29 12:24:01;;;;;;;8.68;5.18;;;;;;;15.20;91.59;95661.25;5086381;28;20044;-69
2021/09/29 12:26:30;;;;;;;9.52;5.15;;;;;;;15.22;91.80;95664.44;5085962;28;20055;-70
2021/09/29 12:29:21;;;;;;;9.73;6.15;;;;;;;15.26;90.83;95665.53;5086638;28;20905;-70
2021/09/29 12:34:29;;;;;;;14.70;8.30;;;;;;;15.12;92.27;95670.28;5094802;28;20040;-70
2021/09/29 12:37:07;;;;;;;12.48;6.82;;;;;;;15.06;92.34;95669.41;5108463;27;20536;-69
2021/09/29 12:39:33;;;;;;;14.32;8.45;;;;;;;14.94;92.84;95662.66;5068916;28;20047;-69
2021/09/29 12:42:27;;;;;;;14.85;8.65;;;;;;;14.96;93.30;95656.13;5084315;28;20108;-71
2021/09/29 12:44:54;;;;;;;14.10;8.73;;;;;;;14.88;93.31;95661.78;5073486;28;20106;-71
2021/09/29 12:47:24;;;;;;;12.88;8.05;;;;;;;14.96;92.67;95661.38;5085570;28;20036;-68
2021/09/29 12:49:52;;;;;;;12.02;7.00;;;;;;;14.85;92.57;95662.25;5085333;28;20040;-69
2021/09/29 12:52:32;;;;;;;13.57;7.43;;;;;;;14.82;92.65;95646.97;5085527;28;20169;-70
2021/09/29 12:55:01;;;;;;;11.15;7.05;;;;;;;14.94;92.89;95663.44;5085688;28;20393;-70
2021/09/29 12:57:42;;;;;;;12.30;7.50;;;;;;;14.85;92.55;95654.38;5085072;28;20040;-70
2021/09/29 13:00:10;;;;;;;12.57;7.35;;;;;;;14.85;92.72;95667.50;5085231;28;20036;-70
2021/09/29 13:02:37;;;;;;;15.10;8.02;;;;;;;14.68;94.41;95655.16;5085249;28;20051;-69
2021/09/29 13:05:04;;;;;;;12.85;7.72;;;;;;;14.78;94.22;95664.22;5070006;28;20544;-69
2021/09/29 13:07:31;;;;;;;14.48;8.40;;;;;;;14.88;93.59;95662.56;5085241;28;20044;-68
2021/09/29 13:09:58;;;;;;;9.07;5.85;;;;;;;14.97;92.73;95660.34;5082959;28;20048;-69
2021/09/29 13:12:25;;;;;;;9.10;5.68;;;;;;;14.95;93.21;95659.81;5088777;28;20512;-70
2021/09/29 13:14:52;;;;;;;13.75;6.55;;;;;;;15.04;92.40;95663.63;5084655;28;20115;-70
2021/09/29 13:17:18;;;;;;;9.73;5.82;;;;;;;14.94;92.26;95618.84;5084417;28;20414;-71
2021/09/29 13:19:55;;;;;;;15.63;6.80;;;;;;;15.24;92.28;95659.72;5085391;28;20102;-71
2021/09/29 13:22:23;;;;;;;10.05;6.18;;;;;;;15.16;91.66;95654.88;5085500;28;20048;-71
2021/09/29 13:27:37;;;;;;;7.85;4.75;;;;;;;15.35;91.65;95664.09;5085996;28;20057;-71
2021/09/29 13:35:11;;;;;;;;;;;;;;;15.42;91.04;95664.72;5086664;28;20047;-71
2021/09/29 13:38:29;;;;;;;10.32;6.25;;;;;;;15.73;89.92;95664.34;5085616;28;20499;-70
2021/09/29 13:40:56;;;;;;;8.43;5.47;;;;;;;15.79;88.78;95669.47;5081499;28;20050;-70
2021/09/29 13:43:23;;;;;;;7.82;4.82;;;;;;;15.86;87.94;95670.09;5105414;28;20063;-68
2021/09/29 13:45:50;;;;;;;8.05;4.65;;;;;;;15.86;88.29;95664.81;5105288;28;20035;-69
2021/09/29 13:48:18;;;;;;;7.22;4.15;;;;;;;15.85;88.50;95668.47;5105500;28;20027;-68
2021/09/29 13:50:45;;;;;;;7.85;4.90;;;;;;;15.96;87.78;95658.09;5105476;28;20741;-69
2021/09/29 13:53:13;;;;;;;7.68;4.90;;;;;;;15.89;87.13;95665.38;5080255;28;20081;-68
2021/09/29 13:55:41;;;;;;;8.82;4.60;;;;;;;15.74;87.37;95656.25;5086161;28;20043;-69
2021/09/29 13:58:17;;;;;;;7.53;4.50;;;;;;;15.64;87.63;95650.84;5095468;28;20122;-70
2021/09/29 14:30:30;;;;;;;4.20;3.15;;;;;;;15.28;90.18;95659.00;5086780;28;20054;-70
2021/09/29 14:35:26;;;;;;;4.72;2.78;;;;;;;15.05;90.59;95665.22;5095344;28;20744;-70
2021/09/29 14:37:53;;;;;;;3.60;2.30;;;;;;;14.89;90.34;95663.34;5065294;28;20093;-71
2021/09/29 14:40:22;;;;;;;4.13;2.17;;;;;;;14.95;91.76;95665.06;5084668;28;20043;-71
2021/09/29 14:42:49;;;;;;;4.03;2.25;;;;;;;14.93;90.89;95667.13;5086013;28;20066;-70
2021/09/29 14:45:20;;;;;;;3.65;1.90;;;;;;;14.83;90.55;95667.72;5087359;28;20519;-71
2021/09/29 14:47:47;;;;;;;2.33;1.33;;;;;;;14.75;89.96;95659.44;5076772;28;20043;-70
2021/09/29 14:50:15;;;;;;;3.45;1.73;;;;;;;14.78;90.40;95666.84;5101713;28;20078;-71
2021/09/29 14:52:42;;;;;;;2.00;1.40;;;;;;;14.76;90.71;95666.31;5084880;28;20432;-71
2021/09/29 14:55:09;;;;;;;4.38;1.38;;;;;;;14.74;90.99;95678.84;5084802;28;20051;-71